Time;durP1;ratioP1;P1;durP2;ratioP2;P2;SDS_P1;SDS_P2;PMS_P1;PMS_P2;Temp;Humidity;BMP_temperature;BMP_pressure;BME280_temperature;BME280_humidity;BME280_pressure;Samples;Min_cycle;Max_cycle;Signal;HPM_P1;HPM_P2
2022/10/09 00:01:06;;;;;;;5.80;2.42;;;;;;;;;;4974590;28;20041;-69
2022/10/09 00:03:33;;;;;;;9.30;2.53;;;;;;;;;;4975518;28;20035;-68
2022/10/09 00:05:59;;;;;;;15.73;2.92;;;;;;;;;;4974172;28;20113;-68
2022/10/09 00:08:25;;;;;;;8.57;2.60;;;;;;;;;;4964448;28;20043;-68
2022/10/09 00:10:51;;;;;;;9.15;2.25;;;;;;;;;;4970086;28;20038;-68
2022/10/09 00:13:18;;;;;;;8.23;2.15;;;;;;;;;;4970354;28;20046;-69
2022/10/09 00:15:44;;;;;;;11.38;2.83;;;;;;;;;;4974986;28;20061;-68
2022/10/09 00:18:12;;;;;;;11.80;2.17;;;;;;;;;;4974071;28;20101;-67
2022/10/09 00:20:39;;;;;;;14.23;2.25;;;;;;;;;;4974556;28;20030;-68
2022/10/09 00:23:05;;;;;;;5.25;2.08;;;;;;;;;;4973521;28;20390;-68
2022/10/09 00:25:32;;;;;;;6.53;1.73;;;;;;;;;;4975537;28;20101;-68
2022/10/09 00:27:58;;;;;;;5.40;2.63;;;;;;;;;;4967694;28;20436;-68
2022/10/09 00:30:24;;;;;;;13.63;2.13;;;;;;;;;;4969129;28;20073;-67
2022/10/09 00:32:50;;;;;;;8.43;2.25;;;;;;;;;;4973015;28;20030;-68
2022/10/09 00:35:16;;;;;;;6.15;2.00;;;;;;;;;;4974060;28;20042;-68
2022/10/09 00:37:42;;;;;;;10.50;2.55;;;;;;;;;;4973666;28;20034;-68
2022/10/09 00:40:09;;;;;;;13.65;2.35;;;;;;;;;;4967430;28;20043;-68
2022/10/09 00:42:35;;;;;;;7.72;2.28;;;;;;;;;;4971590;28;20077;-69
2022/10/09 00:45:02;;;;;;;4.38;1.70;;;;;;;;;;4967524;28;20483;-68
2022/10/09 00:47:47;;;;;;;7.95;1.95;;;;;;;;;;4974933;28;20047;-68
2022/10/09 00:50:13;;;;;;;8.60;2.30;;;;;;;;;;4973582;28;20153;-68
2022/10/09 00:52:39;;;;;;;7.82;2.33;;;;;;;;;;4973511;28;20109;-67
2022/10/09 00:55:06;;;;;;;8.43;2.15;;;;;;;;;;4973752;28;20168;-67
2022/10/09 00:57:32;;;;;;;10.43;2.03;;;;;;;;;;4971888;28;20077;-68
2022/10/09 01:00:01;;;;;;;9.43;2.08;;;;;;;;;;4957127;28;20450;-68
2022/10/09 01:02:27;;;;;;;4.15;1.85;;;;;;;;;;4970431;28;20475;-68
2022/10/09 01:04:53;;;;;;;6.45;2.40;;;;;;;;;;4962155;28;20467;-68
2022/10/09 01:07:40;;;;;;;8.60;1.92;;;;;;;;;;4972882;28;20387;-68
2022/10/09 01:10:25;;;;;;;11.13;2.50;;;;;;;;;;4982473;28;20447;-68
2022/10/09 01:12:54;;;;;;;7.35;2.80;;;;;;;;;;4973579;28;20019;-67
2022/10/09 01:15:43;;;;;;;11.15;2.20;;;;;;;;;;4973382;28;20019;-68
2022/10/09 01:18:17;;;;;;;10.60;2.33;;;;;;;;;;4972967;28;20039;-67
2022/10/09 01:20:48;;;;;;;8.23;2.63;;;;;;;;;;4974628;28;20038;-67
2022/10/09 01:23:17;;;;;;;10.60;2.42;;;;;;;;;;4973313;28;20058;-70
2022/10/09 01:25:46;;;;;;;10.38;3.05;;;;;;;;;;4973532;28;20014;-67
2022/10/09 01:28:14;;;;;;;7.70;1.92;;;;;;;;;;4973390;28;20053;-68
2022/10/09 01:30:40;;;;;;;10.90;2.10;;;;;;;;;;4973212;28;20066;-69
2022/10/09 01:33:07;;;;;;;5.97;2.10;;;;;;;;;;4984945;28;20436;-67
2022/10/09 01:35:33;;;;;;;8.32;2.33;;;;;;;;;;4971057;28;20643;-67
2022/10/09 01:38:01;;;;;;;4.25;2.05;;;;;;;;;;4973151;28;20050;-68
2022/10/09 01:40:28;;;;;;;7.03;2.22;;;;;;;;;;4976528;28;20465;-68
2022/10/09 01:42:55;;;;;;;8.05;2.78;;;;;;;;;;4969975;28;20055;-67
2022/10/09 01:45:21;;;;;;;5.43;1.85;;;;;;;;;;4972846;28;20030;-67
2022/10/09 01:47:47;;;;;;;8.02;2.75;;;;;;;;;;4973286;28;20027;-67
2022/10/09 01:50:23;;;;;;;8.25;2.42;;;;;;;;;;4964744;28;20326;-67
2022/10/09 01:52:52;;;;;;;8.23;2.25;;;;;;;;;;4973358;28;20018;-68
2022/10/09 01:55:25;;;;;;;5.53;2.17;;;;;;;;;;4972148;28;20046;-68
2022/10/09 01:57:54;;;;;;;8.85;2.38;;;;;;;;;;4978435;28;20471;-68
2022/10/09 02:00:20;;;;;;;7.07;2.20;;;;;;;;;;4971681;28;20034;-68
2022/10/09 02:02:47;;;;;;;7.07;2.75;;;;;;;;;;4967538;28;20043;-69
2022/10/09 02:05:17;;;;;;;9.07;3.17;;;;;;;;;;4971489;28;20040;-69
2022/10/09 02:07:43;;;;;;;7.07;2.85;;;;;;;;;;4972080;28;20047;-69
2022/10/09 02:10:10;;;;;;;5.57;2.50;;;;;;;;;;4970767;28;20038;-69
2022/10/09 02:12:43;;;;;;;11.77;2.45;;;;;;;;;;4972848;28;20333;-69
2022/10/09 02:15:09;;;;;;;8.57;2.83;;;;;;;;;;4966231;28;20105;-69
2022/10/09 02:17:38;;;;;;;10.13;2.80;;;;;;;;;;4972561;28;20089;-69
2022/10/09 02:20:27;;;;;;;8.18;2.88;;;;;;;;;;4971680;28;20031;-68
2022/10/09 02:22:55;;;;;;;9.82;2.90;;;;;;;;;;4966503;28;20503;-69
2022/10/09 02:25:21;;;;;;;9.73;4.75;;;;;;;;;;4971870;28;20083;-69
2022/10/09 02:27:47;;;;;;;7.60;3.75;;;;;;;;;;4973159;28;20045;-69
2022/10/09 02:30:14;;;;;;;8.13;3.13;;;;;;;;;;4975819;28;20110;-69
2022/10/09 02:32:41;;;;;;;8.25;3.20;;;;;;;;;;4971174;28;20027;-69
2022/10/09 02:35:07;;;;;;;6.53;3.00;;;;;;;;;;4970674;28;20279;-70
2022/10/09 02:37:34;;;;;;;12.70;3.28;;;;;;;;;;4971704;28;20034;-69
2022/10/09 02:40:00;;;;;;;8.18;3.15;;;;;;;;;;4964551;28;20463;-70
2022/10/09 02:42:26;;;;;;;9.23;3.72;;;;;;;;;;4972769;28;20070;-69
2022/10/09 02:44:52;;;;;;;9.05;3.00;;;;;;;;;;4964983;28;20101;-69
2022/10/09 02:47:18;;;;;;;7.63;4.03;;;;;;;;;;4970716;28;20022;-69
2022/10/09 02:49:44;;;;;;;6.10;3.30;;;;;;;;;;4971986;28;20392;-69
2022/10/09 02:52:10;;;;;;;12.93;4.35;;;;;;;;;;4971324;28;20484;-69
2022/10/09 02:54:37;;;;;;;9.13;3.55;;;;;;;;;;4970495;28;20039;-69
2022/10/09 02:57:03;;;;;;;4.88;3.20;;;;;;;;;;4971389;28;20106;-69
2022/10/09 02:59:30;;;;;;;8.02;3.78;;;;;;;;;;4958882;28;20151;-70
2022/10/09 03:01:56;;;;;;;12.10;4.28;;;;;;;;;;4967098;28;20491;-69
2022/10/09 03:04:22;;;;;;;9.57;3.95;;;;;;;;;;4979593;28;20375;-69
2022/10/09 03:06:48;;;;;;;10.35;3.70;;;;;;;;;;4971922;28;20546;-69
2022/10/09 03:09:15;;;;;;;6.40;3.47;;;;;;;;;;4971136;28;20478;-69
2022/10/09 03:11:41;;;;;;;10.02;3.60;;;;;;;;;;4972309;28;20031;-69
2022/10/09 03:14:07;;;;;;;7.43;4.25;;;;;;;;;;4971432;28;20031;-69
2022/10/09 03:16:33;;;;;;;9.85;3.92;;;;;;;;;;4969849;28;20083;-68
2022/10/09 03:18:59;;;;;;;11.43;3.80;;;;;;;;;;4965633;28;20447;-70
2022/10/09 03:21:26;;;;;;;10.27;4.45;;;;;;;;;;4968584;28;20054;-69
2022/10/09 03:23:52;;;;;;;11.43;4.32;;;;;;;;;;4966423;28;20030;-69
2022/10/09 03:26:19;;;;;;;9.85;4.38;;;;;;;;;;4966709;28;20031;-69
2022/10/09 03:28:47;;;;;;;11.38;5.22;;;;;;;;;;4967508;28;20086;-69
2022/10/09 03:31:14;;;;;;;11.95;4.93;;;;;;;;;;4963579;28;20035;-69
2022/10/09 03:33:40;;;;;;;13.02;5.03;;;;;;;;;;4971340;28;20046;-70
2022/10/09 03:36:06;;;;;;;9.60;4.22;;;;;;;;;;4966960;28;20031;-70
2022/10/09 03:38:33;;;;;;;11.68;5.00;;;;;;;;;;4971087;28;20046;-69
2022/10/09 03:40:59;;;;;;;10.95;4.45;;;;;;;;;;4974041;28;20034;-69
2022/10/09 03:43:25;;;;;;;10.77;5.22;;;;;;;;;;4974516;28;20039;-69
2022/10/09 03:45:51;;;;;;;9.27;4.45;;;;;;;;;;4967159;28;20030;-69
2022/10/09 03:48:17;;;;;;;13.35;4.53;;;;;;;;;;4975018;28;20062;-69
2022/10/09 03:50:43;;;;;;;14.60;5.80;;;;;;;;;;4965504;28;20085;-69
2022/10/09 03:53:11;;;;;;;12.02;4.63;;;;;;;;;;4976304;28;20039;-69
2022/10/09 03:55:37;;;;;;;10.90;4.90;;;;;;;;;;4975501;28;20035;-70
2022/10/09 03:58:03;;;;;;;11.70;4.97;;;;;;;;;;4974634;28;20097;-69
2022/10/09 04:00:29;;;;;;;9.68;5.13;;;;;;;;;;4974465;28;20034;-69
2022/10/09 04:02:55;;;;;;;13.48;4.45;;;;;;;;;;4973574;28;20035;-69
2022/10/09 04:05:21;;;;;;;10.30;4.90;;;;;;;;;;4973511;28;20039;-69
2022/10/09 04:07:48;;;;;;;8.82;4.57;;;;;;;;;;4974320;28;20166;-69
2022/10/09 04:10:14;;;;;;;9.43;4.90;;;;;;;;;;4974755;28;20106;-69
2022/10/09 04:12:40;;;;;;;11.35;4.35;;;;;;;;;;4980419;28;20121;-69
2022/10/09 04:15:06;;;;;;;9.25;4.95;;;;;;;;;;4974985;28;20039;-69
2022/10/09 04:17:32;;;;;;;9.43;4.60;;;;;;;;;;4974078;28;20027;-69
2022/10/09 04:19:58;;;;;;;12.65;4.65;;;;;;;;;;4974225;28;20027;-69
2022/10/09 04:22:24;;;;;;;10.77;4.63;;;;;;;;;;4973591;28;20031;-69
2022/10/09 04:24:50;;;;;;;10.93;5.80;;;;;;;;;;4973420;28;20153;-69
2022/10/09 04:27:16;;;;;;;10.55;4.85;;;;;;;;;;4974638;28;20027;-69
2022/10/09 04:29:43;;;;;;;9.68;4.78;;;;;;;;;;4975179;28;20038;-70
2022/10/09 04:32:09;;;;;;;10.55;5.90;;;;;;;;;;4974821;28;20066;-70
2022/10/09 04:34:35;;;;;;;15.40;5.55;;;;;;;;;;4970412;28;20034;-69
2022/10/09 04:37:01;;;;;;;13.85;5.80;;;;;;;;;;4973038;28;20519;-70
2022/10/09 04:39:27;;;;;;;16.45;5.95;;;;;;;;;;4968594;28;20101;-69
2022/10/09 04:41:53;;;;;;;12.35;6.55;;;;;;;;;;4970017;28;20042;-69
2022/10/09 04:44:19;;;;;;;8.93;5.97;;;;;;;;;;4969513;28;20032;-69
2022/10/09 04:46:45;;;;;;;11.35;5.72;;;;;;;;;;4976771;28;20039;-70
2022/10/09 04:49:12;;;;;;;11.07;5.82;;;;;;;;;;4969492;28;20050;-70
2022/10/09 04:51:38;;;;;;;8.95;5.47;;;;;;;;;;4971630;28;20030;-69
2022/10/09 04:54:04;;;;;;;13.18;5.47;;;;;;;;;;4974755;28;20058;-71
2022/10/09 04:56:30;;;;;;;11.82;5.20;;;;;;;;;;4971690;28;20384;-69
2022/10/09 04:58:56;;;;;;;12.35;6.25;;;;;;;;;;4973952;28;20038;-69
2022/10/09 05:01:23;;;;;;;9.57;5.72;;;;;;;;;;4971255;28;20031;-70
2022/10/09 05:03:50;;;;;;;8.45;5.18;;;;;;;;;;4971957;28;20056;-70
2022/10/09 05:06:16;;;;;;;11.68;5.50;;;;;;;;;;4967899;28;20357;-70
2022/10/09 05:08:43;;;;;;;10.82;5.03;;;;;;;;;;4977993;28;20027;-71
2022/10/09 05:11:10;;;;;;;13.25;6.03;;;;;;;;;;4973444;28;20055;-70
2022/10/09 05:13:39;;;;;;;9.98;5.28;;;;;;;;;;4964988;28;20030;-70
2022/10/09 05:16:06;;;;;;;8.57;5.30;;;;;;;;;;4971672;28;20035;-70
2022/10/09 05:18:33;;;;;;;7.47;5.28;;;;;;;;;;4973242;28;20437;-71
2022/10/09 05:20:59;;;;;;;8.15;4.70;;;;;;;;;;4969910;28;20101;-71
2022/10/09 05:23:25;;;;;;;10.98;6.97;;;;;;;;;;4974496;28;20037;-69
2022/10/09 05:25:58;;;;;;;13.00;5.80;;;;;;;;;;4973291;28;20368;-73
2022/10/09 05:28:24;;;;;;;127.57;90.78;;;;;;;;;;4970407;28;20038;-70
2022/10/09 05:30:50;;;;;;;16.15;7.80;;;;;;;;;;4969486;28;20066;-70
2022/10/09 05:33:16;;;;;;;10.35;5.95;;;;;;;;;;4971171;28;20054;-70
2022/10/09 05:36:03;;;;;;;15.05;7.30;;;;;;;;;;4969987;28;20030;-70
2022/10/09 05:38:29;;;;;;;12.13;5.88;;;;;;;;;;4979464;28;20058;-70
2022/10/09 05:40:57;;;;;;;8.30;5.32;;;;;;;;;;4971718;28;20034;-71
2022/10/09 05:43:23;;;;;;;11.00;5.97;;;;;;;;;;4966720;28;20499;-70
2022/10/09 05:45:50;;;;;;;7.55;5.35;;;;;;;;;;4970226;28;20102;-70
2022/10/09 05:48:16;;;;;;;14.48;8.35;;;;;;;;;;4973724;28;20031;-71
2022/10/09 05:50:42;;;;;;;13.95;6.55;;;;;;;;;;4970523;28;20042;-70
2022/10/09 05:53:08;;;;;;;11.73;5.97;;;;;;;;;;4968834;28;20045;-70
2022/10/09 05:55:34;;;;;;;9.73;5.60;;;;;;;;;;4969199;28;20056;-69
2022/10/09 05:58:00;;;;;;;11.48;5.90;;;;;;;;;;4972045;28;20098;-69
2022/10/09 06:00:27;;;;;;;8.60;5.90;;;;;;;;;;4972004;28;20042;-70
2022/10/09 06:02:53;;;;;;;12.02;5.15;;;;;;;;;;4971354;28;20495;-69
2022/10/09 06:05:19;;;;;;;10.20;5.85;;;;;;;;;;4965627;28;20029;-70
2022/10/09 06:07:46;;;;;;;10.32;6.47;;;;;;;;;;4971848;28;20051;-71
2022/10/09 06:10:12;;;;;;;16.45;10.63;;;;;;;;;;4965553;28;20468;-73
2022/10/09 06:12:38;;;;;;;9.55;6.30;;;;;;;;;;4966991;28;20049;-71
2022/10/09 06:15:05;;;;;;;14.77;6.75;;;;;;;;;;4971335;28;20136;-70
2022/10/09 06:17:31;;;;;;;16.65;7.70;;;;;;;;;;4964374;28;20601;-68
2022/10/09 06:19:57;;;;;;;11.70;7.30;;;;;;;;;;4969092;28;20142;-69
2022/10/09 06:22:24;;;;;;;15.20;8.05;;;;;;;;;;4974728;28;20042;-70
2022/10/09 06:24:50;;;;;;;14.30;7.50;;;;;;;;;;4968947;28;20387;-70
2022/10/09 06:27:16;;;;;;;15.23;6.68;;;;;;;;;;4970502;28;20101;-70
2022/10/09 06:29:42;;;;;;;12.23;6.15;;;;;;;;;;4972931;28;20117;-71
2022/10/09 06:32:08;;;;;;;14.15;5.53;;;;;;;;;;4972810;28;20038;-71
2022/10/09 06:34:34;;;;;;;15.30;6.43;;;;;;;;;;4972165;28;20035;-71
2022/10/09 06:37:00;;;;;;;12.32;6.55;;;;;;;;;;4971513;28;20035;-71
2022/10/09 06:39:26;;;;;;;10.55;6.55;;;;;;;;;;4972388;28;20038;-70
2022/10/09 06:41:53;;;;;;;14.00;6.68;;;;;;;;;;4972132;28;20035;-69
2022/10/09 06:44:19;;;;;;;14.52;6.22;;;;;;;;;;4972054;28;20078;-70
2022/10/09 06:46:47;;;;;;;19.05;6.50;;;;;;;;;;4987891;28;20114;-70
2022/10/09 06:49:13;;;;;;;15.48;6.15;;;;;;;;;;4971627;28;20031;-70
2022/10/09 06:51:43;;;;;;;11.65;6.30;;;;;;;;;;4972130;28;20046;-72
2022/10/09 06:54:14;;;;;;;10.65;5.95;;;;;;;;;;4971682;28;20034;-71
2022/10/09 06:56:41;;;;;;;15.30;6.45;;;;;;;;;;4957251;28;20059;-71
2022/10/09 06:59:07;;;;;;;19.05;6.43;;;;;;;;;;4969344;28;20054;-71
2022/10/09 07:01:34;;;;;;;11.52;6.32;;;;;;;;;;4970525;28;20554;-69
2022/10/09 07:04:01;;;;;;;11.57;6.05;;;;;;;;;;4968758;28;20467;-70
2022/10/09 07:06:29;;;;;;;10.10;5.50;;;;;;;;;;4965491;28;20057;-70
2022/10/09 07:09:06;;;;;;;14.50;8.30;;;;;;;;;;4962471;28;20022;-70
2022/10/09 07:11:36;;;;;;;17.17;8.90;;;;;;;;;;4965603;28;20026;-68
2022/10/09 07:14:03;;;;;;;9.68;6.53;;;;;;;;;;4965828;28;20031;-71
2022/10/09 07:16:31;;;;;;;13.10;6.18;;;;;;;;;;4962549;28;20042;-70
2022/10/09 07:19:00;;;;;;;16.67;6.38;;;;;;;;;;4967602;28;20031;-70
2022/10/09 07:21:26;;;;;;;11.82;6.40;;;;;;;;;;4970038;28;20368;-71
2022/10/09 07:23:55;;;;;;;13.05;6.22;;;;;;;;;;4970893;28;20046;-70
2022/10/09 07:26:23;;;;;;;12.98;6.45;;;;;;;;;;4969973;28;20144;-71
2022/10/09 07:28:49;;;;;;;15.15;6.57;;;;;;;;;;4964159;28;20518;-71
2022/10/09 07:31:16;;;;;;;8.70;5.43;;;;;;;;;;4967173;28;20460;-71
2022/10/09 07:33:42;;;;;;;12.80;5.65;;;;;;;;;;4969637;28;20516;-71
2022/10/09 07:36:10;;;;;;;11.73;6.70;;;;;;;;;;4970510;28;20035;-71
2022/10/09 07:38:36;;;;;;;12.00;6.88;;;;;;;;;;4968847;28;20027;-72
2022/10/09 07:41:04;;;;;;;19.13;7.50;;;;;;;;;;4963092;28;20089;-71
2022/10/09 07:43:30;;;;;;;9.57;6.70;;;;;;;;;;4969261;28;20046;-74
2022/10/09 07:46:00;;;;;;;19.42;6.13;;;;;;;;;;4969363;28;20035;-71
2022/10/09 07:48:26;;;;;;;14.48;6.75;;;;;;;;;;4963735;28;20488;-71
2022/10/09 07:50:53;;;;;;;9.70;6.30;;;;;;;;;;4968151;28;20055;-70
2022/10/09 07:53:19;;;;;;;9.75;5.78;;;;;;;;;;4959748;28;20053;-71
2022/10/09 07:55:46;;;;;;;9.85;5.10;;;;;;;;;;4966281;28;20042;-70
2022/10/09 07:58:13;;;;;;;10.80;5.18;;;;;;;;;;4965455;28;20045;-70
2022/10/09 08:00:39;;;;;;;20.40;5.50;;;;;;;;;;4966905;28;20039;-70
2022/10/09 08:03:05;;;;;;;17.70;4.90;;;;;;;;;;4983124;28;20475;-70
2022/10/09 08:05:31;;;;;;;12.18;5.03;;;;;;;;;;4967723;28;20122;-71
2022/10/09 08:07:57;;;;;;;13.55;4.85;;;;;;;;;;4971065;28;20408;-71
2022/10/09 08:10:23;;;;;;;15.48;4.50;;;;;;;;;;4975487;28;20045;-71
2022/10/09 08:12:49;;;;;;;16.73;6.10;;;;;;;;;;4968255;28;20039;-70
2022/10/09 08:15:15;;;;;;;12.25;4.55;;;;;;;;;;4955097;28;20027;-71
2022/10/09 08:17:41;;;;;;;8.70;4.30;;;;;;;;;;4965199;28;20026;-69
2022/10/09 08:20:08;;;;;;;16.83;5.50;;;;;;;;;;4972626;28;20468;-72
2022/10/09 08:22:34;;;;;;;11.95;4.63;;;;;;;;;;4972450;28;20035;-70
2022/10/09 08:25:00;;;;;;;10.57;4.47;;;;;;;;;;4973027;28;20161;-70
2022/10/09 08:27:26;;;;;;;11.45;3.92;;;;;;;;;;4972714;28;20114;-71
2022/10/09 08:29:52;;;;;;;14.88;3.88;;;;;;;;;;4974571;28;20039;-69
2022/10/09 08:32:19;;;;;;;19.10;6.18;;;;;;;;;;4972981;28;20042;-70
2022/10/09 08:34:46;;;;;;;148.02;91.70;;;;;;;;;;4965652;28;20351;-70
2022/10/09 08:37:12;;;;;;;32.13;17.50;;;;;;;;;;4966684;28;20106;-70
2022/10/09 08:39:38;;;;;;;10.32;3.58;;;;;;;;;;4965498;28;20066;-69
2022/10/09 08:42:04;;;;;;;11.10;3.60;;;;;;;;;;4960233;28;20039;-70
2022/10/09 08:44:34;;;;;;;13.73;4.22;;;;;;;;;;4971524;28;20506;-71
2022/10/09 08:47:12;;;;;;;10.88;3.70;;;;;;;;;;4971156;28;20034;-71
2022/10/09 08:49:38;;;;;;;12.70;3.80;;;;;;;;;;4969278;28;20038;-70
2022/10/09 08:52:12;;;;;;;17.73;4.10;;;;;;;;;;4970925;28;20438;-71
2022/10/09 08:54:39;;;;;;;8.48;3.42;;;;;;;;;;4974873;28;20027;-71
2022/10/09 08:57:09;;;;;;;11.57;3.50;;;;;;;;;;4969974;28;20491;-70
2022/10/09 08:59:35;;;;;;;8.40;3.33;;;;;;;;;;4970350;28;20034;-71
2022/10/09 09:02:01;;;;;;;12.68;3.53;;;;;;;;;;4970092;28;20050;-70
2022/10/09 09:04:33;;;;;;;11.02;3.60;;;;;;;;;;4972583;28;21283;-71
2022/10/09 09:07:09;;;;;;;8.93;2.88;;;;;;;;;;4967090;28;20050;-72
2022/10/09 09:10:01;;;;;;;22.80;11.65;;;;;;;;;;4968060;28;20387;-71
2022/10/09 09:12:27;;;;;;;10.90;3.50;;;;;;;;;;4970315;28;20042;-70
2022/10/09 09:14:53;;;;;;;7.88;2.92;;;;;;;;;;4973503;28;20023;-71
2022/10/09 09:17:22;;;;;;;10.90;2.88;;;;;;;;;;4971624;28;20062;-70
2022/10/09 09:19:55;;;;;;;10.77;3.00;;;;;;;;;;4981975;28;20558;-71
2022/10/09 09:22:23;;;;;;;8.27;2.70;;;;;;;;;;4973134;28;20039;-71
2022/10/09 09:24:56;;;;;;;20.98;4.47;;;;;;;;;;4973474;28;20046;-69
2022/10/09 09:27:27;;;;;;;14.18;3.22;;;;;;;;;;4967910;28;20026;-71
2022/10/09 09:30:11;;;;;;;7.10;2.67;;;;;;;;;;4970142;28;20407;-71
2022/10/09 09:32:41;;;;;;;17.25;2.95;;;;;;;;;;4969562;28;20061;-70
2022/10/09 09:35:26;;;;;;;13.07;3.90;;;;;;;;;;4966665;28;20106;-71
2022/10/09 09:37:53;;;;;;;13.43;3.45;;;;;;;;;;4970875;28;20042;-70
2022/10/09 09:40:19;;;;;;;6.95;2.65;;;;;;;;;;4975412;28;20089;-71
2022/10/09 09:42:47;;;;;;;12.90;3.13;;;;;;;;;;4971285;28;20043;-71
2022/10/09 09:45:17;;;;;;;9.93;3.60;;;;;;;;;;4973066;28;20035;-71
2022/10/09 09:47:46;;;;;;;7.35;2.50;;;;;;;;;;4973554;28;20042;-71
2022/10/09 09:50:12;;;;;;;7.30;2.53;;;;;;;;;;4972098;28;20043;-72
2022/10/09 09:52:42;;;;;;;12.25;2.85;;;;;;;;;;4977041;28;20031;-72
2022/10/09 09:55:22;;;;;;;7.65;2.33;;;;;;;;;;4969165;28;20031;-68
2022/10/09 09:57:48;;;;;;;139.75;85.85;;;;;;;;;;4972201;28;20039;-73
2022/10/09 10:00:21;;;;;;;44.40;28.13;;;;;;;;;;4970933;28;20506;-71
2022/10/09 10:02:48;;;;;;;9.15;2.55;;;;;;;;;;4967932;28;20106;-72
2022/10/09 10:05:21;;;;;;;9.32;1.95;;;;;;;;;;4972109;28;20023;-72
2022/10/09 10:07:49;;;;;;;8.73;2.30;;;;;;;;;;4958497;28;20059;-72
2022/10/09 10:10:22;;;;;;;4.93;1.40;;;;;;;;;;4987449;28;20039;-73
2022/10/09 10:12:51;;;;;;;10.23;2.20;;;;;;;;;;4965105;28;20471;-70
2022/10/09 10:15:19;;;;;;;11.80;2.72;;;;;;;;;;4972459;28;20029;-72
2022/10/09 10:17:46;;;;;;;9.68;2.47;;;;;;;;;;4959051;28;20106;-71
2022/10/09 10:20:15;;;;;;;8.82;2.10;;;;;;;;;;4968350;28;20518;-72
2022/10/09 10:22:41;;;;;;;7.00;2.95;;;;;;;;;;4970503;28;20106;-71
2022/10/09 10:25:14;;;;;;;6.25;2.10;;;;;;;;;;4971144;28;20043;-71
2022/10/09 10:27:42;;;;;;;9.90;2.50;;;;;;;;;;4976454;28;20342;-71
2022/10/09 10:30:15;;;;;;;7.63;1.88;;;;;;;;;;4971722;28;20077;-72
2022/10/09 10:32:41;;;;;;;8.32;1.95;;;;;;;;;;4976621;28;20396;-72
2022/10/09 10:35:18;;;;;;;4.65;1.40;;;;;;;;;;4955191;28;20476;-73
2022/10/09 10:37:56;;;;;;;8.40;2.13;;;;;;;;;;4967856;28;20023;-71
2022/10/09 10:40:25;;;;;;;8.98;1.95;;;;;;;;;;4969006;28;20031;-71
2022/10/09 10:42:52;;;;;;;4.93;1.52;;;;;;;;;;4964740;28;20022;-72
2022/10/09 10:45:22;;;;;;;9.98;1.52;;;;;;;;;;4968891;28;20049;-72
2022/10/09 10:47:50;;;;;;;7.90;2.05;;;;;;;;;;4970998;28;20039;-72
2022/10/09 10:50:18;;;;;;;5.80;1.50;;;;;;;;;;4971985;28;20054;-73
2022/10/09 10:52:50;;;;;;;9.07;2.72;;;;;;;;;;4967572;28;20054;-70
2022/10/09 10:55:26;;;;;;;7.70;1.65;;;;;;;;;;4972147;28;20049;-70
2022/10/09 10:57:59;;;;;;;6.43;1.60;;;;;;;;;;4970855;28;20038;-71
2022/10/09 11:00:27;;;;;;;6.53;1.77;;;;;;;;;;4978800;28;20467;-70
2022/10/09 11:03:01;;;;;;;5.22;1.38;;;;;;;;;;4959026;28;20113;-71
2022/10/09 11:05:33;;;;;;;7.65;2.42;;;;;;;;;;4964031;28;20514;-71
2022/10/09 11:08:05;;;;;;;5.18;2.05;;;;;;;;;;4971469;28;20054;-69
2022/10/09 11:10:37;;;;;;;6.32;1.50;;;;;;;;;;4971213;28;20082;-71
2022/10/09 11:13:22;;;;;;;6.72;1.40;;;;;;;;;;4961978;28;20379;-70
2022/10/09 11:15:51;;;;;;;6.60;1.35;;;;;;;;;;4965230;28;20026;-71
2022/10/09 11:18:23;;;;;;;6.55;1.45;;;;;;;;;;4971894;28;20031;-71
2022/10/09 11:20:49;;;;;;;;;;;;;;;;;;4972269;28;20035;-70
2022/10/09 11:23:26;;;;;;;7.85;1.85;;;;;;;;;;4967955;28;19968;-70
2022/10/09 11:26:07;;;;;;;8.23;1.92;;;;;;;;;;4967201;28;20396;-71
2022/10/09 11:28:45;;;;;;;6.00;1.60;;;;;;;;;;4967252;28;21166;-71
2022/10/09 11:31:40;;;;;;;5.80;1.80;;;;;;;;;;4979615;28;20447;-70
2022/10/09 11:34:12;;;;;;;15.23;2.50;;;;;;;;;;4969300;28;20053;-70
2022/10/09 11:36:42;;;;;;;4.80;2.13;;;;;;;;;;4967918;28;20023;-70
2022/10/09 11:39:24;;;;;;;9.15;2.03;;;;;;;;;;4960914;28;22835;-70
2022/10/09 11:41:52;;;;;;;5.65;1.80;;;;;;;;;;4970816;28;20034;-70
2022/10/09 11:44:22;;;;;;;10.55;2.25;;;;;;;;;;4970565;28;20047;-70
2022/10/09 11:47:09;;;;;;;6.97;2.00;;;;;;;;;;4969432;28;20041;-70
2022/10/09 11:49:42;;;;;;;7.80;2.15;;;;;;;;;;4960277;28;20521;-71
2022/10/09 11:52:28;;;;;;;6.28;2.13;;;;;;;;;;4982256;28;20030;-70
2022/10/09 11:54:54;;;;;;;5.43;2.45;;;;;;;;;;4974193;28;20472;-69
2022/10/09 11:57:32;;;;;;;13.43;5.05;;;;;;;;;;4969881;28;20037;-68
2022/10/09 12:00:03;;;;;;;7.07;2.22;;;;;;;;;;4972674;28;20066;-68
2022/10/09 12:02:30;;;;;;;8.23;2.20;;;;;;;;;;4988608;28;20074;-71
2022/10/09 12:04:56;;;;;;;7.72;2.38;;;;;;;;;;4974653;28;20697;-71
2022/10/09 12:07:34;;;;;;;8.30;2.88;;;;;;;;;;4975177;28;20034;-70
2022/10/09 12:10:04;;;;;;;7.25;2.92;;;;;;;;;;4977801;28;20036;-70
2022/10/09 12:12:30;;;;;;;7.22;2.15;;;;;;;;;;4968483;28;20431;-70
2022/10/09 12:14:57;;;;;;;16.58;3.47;;;;;;;;;;4972520;28;20034;-72
2022/10/09 12:17:23;;;;;;;9.10;2.13;;;;;;;;;;4973324;28;20077;-70
2022/10/09 12:20:15;;;;;;;10.10;2.28;;;;;;;;;;4973825;28;20038;-71
2022/10/09 12:22:43;;;;;;;10.77;2.80;;;;;;;;;;4966283;28;20047;-70
2022/10/09 12:25:21;;;;;;;4.18;2.22;;;;;;;;;;4968138;28;20037;-73
2022/10/09 12:27:48;;;;;;;6.53;2.33;;;;;;;;;;4971954;28;20054;-72
2022/10/09 12:30:19;;;;;;;8.50;2.25;;;;;;;;;;4968223;28;20035;-71
2022/10/09 12:32:45;;;;;;;10.63;1.97;;;;;;;;;;4970456;28;20423;-71
2022/10/09 12:35:32;;;;;;;8.88;3.03;;;;;;;;;;4967298;28;20479;-71
2022/10/09 12:37:59;;;;;;;12.30;2.13;;;;;;;;;;4967245;28;20031;-70
2022/10/09 12:40:26;;;;;;;7.55;2.20;;;;;;;;;;4972100;28;20034;-70
2022/10/09 12:42:53;;;;;;;5.97;1.83;;;;;;;;;;4976156;28;20031;-72
2022/10/09 12:45:22;;;;;;;6.40;1.65;;;;;;;;;;4971698;28;20034;-71
2022/10/09 12:47:48;;;;;;;6.35;2.22;;;;;;;;;;4967690;28;20027;-71
2022/10/09 12:50:25;;;;;;;9.80;2.15;;;;;;;;;;4967620;28;20323;-71
2022/10/09 12:52:56;;;;;;;10.55;2.28;;;;;;;;;;4978721;28;20039;-72
2022/10/09 12:55:35;;;;;;;9.57;2.20;;;;;;;;;;4971514;28;20027;-70
2022/10/09 12:58:08;;;;;;;6.75;1.83;;;;;;;;;;4970293;28;20038;-72
2022/10/09 13:00:35;;;;;;;26.52;13.55;;;;;;;;;;4971246;28;20030;-69
2022/10/09 13:03:01;;;;;;;10.93;4.90;;;;;;;;;;4970481;28;20027;-69
2022/10/09 13:05:38;;;;;;;10.38;2.60;;;;;;;;;;4970638;28;20026;-71
2022/10/09 13:08:05;;;;;;;9.70;2.35;;;;;;;;;;4971960;28;20058;-70
2022/10/09 13:10:31;;;;;;;8.55;2.35;;;;;;;;;;4970141;28;20027;-70
2022/10/09 13:12:58;;;;;;;8.52;2.17;;;;;;;;;;4969750;28;20062;-69
2022/10/09 13:15:24;;;;;;;5.43;2.25;;;;;;;;;;4972297;28;20038;-69
2022/10/09 13:17:50;;;;;;;5.85;2.15;;;;;;;;;;4981837;28;20382;-70
2022/10/09 13:20:16;;;;;;;6.70;2.55;;;;;;;;;;4973451;28;20459;-69
2022/10/09 13:22:58;;;;;;;8.05;2.60;;;;;;;;;;4969974;28;20077;-70
2022/10/09 13:25:26;;;;;;;6.45;2.08;;;;;;;;;;4968708;28;20682;-68
2022/10/09 13:27:52;;;;;;;7.80;2.45;;;;;;;;;;4968342;28;20117;-71
2022/10/09 13:30:18;;;;;;;11.07;2.70;;;;;;;;;;4970391;28;20050;-68
2022/10/09 13:32:44;;;;;;;12.38;2.55;;;;;;;;;;4972123;28;20085;-68
2022/10/09 13:35:10;;;;;;;8.73;3.13;;;;;;;;;;4973455;28;20034;-69
2022/10/09 13:37:36;;;;;;;13.23;2.85;;;;;;;;;;4972242;28;20026;-69
2022/10/09 13:40:04;;;;;;;12.82;3.80;;;;;;;;;;4972808;28;20041;-68
2022/10/09 13:42:35;;;;;;;9.77;2.53;;;;;;;;;;4969233;28;20090;-69
2022/10/09 13:45:01;;;;;;;7.43;2.75;;;;;;;;;;4973101;28;20015;-70
2022/10/09 13:47:27;;;;;;;7.40;2.47;;;;;;;;;;4972804;28;20051;-69
2022/10/09 13:49:53;;;;;;;10.23;2.67;;;;;;;;;;4973367;28;20034;-68
2022/10/09 13:52:20;;;;;;;9.82;2.85;;;;;;;;;;4977955;28;20034;-68
2022/10/09 13:54:46;;;;;;;11.63;2.65;;;;;;;;;;4972620;28;20529;-69
2022/10/09 13:57:12;;;;;;;10.00;2.25;;;;;;;;;;4973725;28;20022;-69
2022/10/09 13:59:39;;;;;;;7.82;2.50;;;;;;;;;;4971199;28;20038;-69
2022/10/09 14:02:05;;;;;;;10.50;2.80;;;;;;;;;;4968412;28;20098;-69
2022/10/09 14:04:31;;;;;;;9.27;2.80;;;;;;;;;;4972074;28;20023;-69
2022/10/09 14:06:57;;;;;;;6.47;1.98;;;;;;;;;;4987593;28;20410;-68
2022/10/09 14:09:23;;;;;;;8.68;2.60;;;;;;;;;;4969710;28;20026;-69
2022/10/09 14:11:49;;;;;;;10.50;2.55;;;;;;;;;;4972205;28;20027;-69
2022/10/09 14:14:15;;;;;;;8.43;2.67;;;;;;;;;;4964806;28;20031;-71
2022/10/09 14:16:42;;;;;;;25.13;10.40;;;;;;;;;;4964541;28;20047;-72
2022/10/09 14:19:09;;;;;;;6.78;2.60;;;;;;;;;;4971738;28;20034;-69
2022/10/09 14:21:35;;;;;;;6.97;2.47;;;;;;;;;;4970884;28;20410;-68
2022/10/09 14:24:02;;;;;;;11.43;2.67;;;;;;;;;;4972296;28;20034;-68
2022/10/09 14:26:28;;;;;;;7.65;2.30;;;;;;;;;;4972274;28;20359;-70
2022/10/09 14:28:54;;;;;;;7.20;2.70;;;;;;;;;;4971737;28;20459;-69
2022/10/09 14:31:21;;;;;;;5.82;2.60;;;;;;;;;;4968142;28;20133;-69
2022/10/09 14:33:48;;;;;;;8.13;2.00;;;;;;;;;;4967519;28;20116;-69
2022/10/09 14:36:17;;;;;;;5.65;2.15;;;;;;;;;;4972389;28;20031;-69
2022/10/09 14:38:43;;;;;;;6.68;2.05;;;;;;;;;;4970895;28;20057;-68
2022/10/09 14:41:10;;;;;;;9.48;2.78;;;;;;;;;;4989427;28;20444;-69
2022/10/09 14:43:37;;;;;;;6.60;1.90;;;;;;;;;;4974373;28;20023;-72